createdAt,value
2017-08-21T00:00:11.395Z,"    0"
2017-08-21T00:05:07.043Z,"    0"
2017-08-21T00:10:02.918Z,"    0"
2017-08-21T00:15:00.165Z,"    0"
2017-08-21T00:19:55.397Z,"    0"
2017-08-21T00:24:51.198Z,"    0"
2017-08-21T00:29:48.402Z,"    0"
2017-08-21T00:34:44.044Z,"    0"
2017-08-21T00:39:39.604Z,"    0"
2017-08-21T00:44:35.645Z,"    0"
2017-08-21T00:49:31.518Z,"    0"
2017-08-21T00:54:27.633Z,"    0"
2017-08-21T00:59:23.542Z,"    0"
2017-08-21T01:04:19.338Z,"    0"
2017-08-21T01:09:15.046Z,"    0"
2017-08-21T01:14:10.787Z,"    0"
2017-08-21T01:19:06.443Z,"    0"
2017-08-21T01:24:02.297Z,"    0"
2017-08-21T01:28:58.041Z,"    0"
2017-08-21T01:33:53.907Z,"    0"
2017-08-21T01:38:49.873Z,"    0"
2017-08-21T01:43:45.609Z,"    0"
2017-08-21T01:48:43.310Z,"    0"
2017-08-21T01:53:38.854Z,"    0"
2017-08-21T01:58:34.624Z,"    0"
2017-08-21T02:03:30.593Z,"    0"
2017-08-21T02:08:26.563Z,"    0"
2017-08-21T02:13:22.407Z,"    0"
2017-08-21T02:18:18.200Z,"    0"
2017-08-21T02:23:13.980Z,"    0"
2017-08-21T02:28:09.761Z,"    0"
2017-08-21T02:33:05.702Z,"    0"
2017-08-21T02:38:01.262Z,"    0"
2017-08-21T02:42:57.067Z,"    0"
2017-08-21T02:47:52.959Z,"    0"
2017-08-21T02:52:48.774Z,"    0"
2017-08-21T02:57:44.556Z,"    0"
2017-08-21T03:02:41.319Z,"    0"
2017-08-21T03:07:37.920Z,"    0"
2017-08-21T03:12:33.686Z,"    0"
2017-08-21T03:17:29.521Z,"    0"
2017-08-21T03:22:25.680Z,"    0"
2017-08-21T03:27:21.507Z,"    0"
2017-08-21T03:32:17.376Z,"    0"
2017-08-21T03:37:13.936Z,"    0"
2017-08-21T03:42:09.865Z,"    0"
2017-08-21T03:47:05.650Z,"    0"
2017-08-21T03:52:01.413Z,"    0"
2017-08-21T03:56:58.290Z,"    8"
2017-08-21T04:01:54.129Z,"   12"
2017-08-21T04:06:49.528Z,"   20"
2017-08-21T04:11:46.974Z,"   40"
2017-08-21T04:16:42.327Z,"   76"
2017-08-21T04:21:38.076Z,"  128"
2017-08-21T04:26:33.813Z,"  208"
2017-08-21T04:31:29.692Z,"  324"
2017-08-21T04:36:25.126Z,"  456"
2017-08-21T04:41:20.940Z,"  624"
2017-08-21T04:46:17.329Z,"  816"
2017-08-21T04:51:13.334Z," 1028"
2017-08-21T04:56:09.296Z," 1240"
2017-08-21T05:01:06.104Z," 1480"
2017-08-21T05:06:01.590Z," 1736"
2017-08-21T05:10:57.604Z," 1992"
2017-08-21T05:15:53.529Z," 2272"
2017-08-21T05:20:49.447Z," 2544"
2017-08-21T05:25:45.499Z," 2804"
2017-08-21T05:30:41.470Z," 3084"
2017-08-21T05:35:38.477Z," 3348"
2017-08-21T05:40:34.303Z," 3596"
2017-08-21T05:45:30.163Z," 3836"
2017-08-21T05:50:26.252Z," 4060"
2017-08-21T05:55:22.954Z," 4264"
2017-08-21T06:00:18.570Z," 4476"
2017-08-21T06:05:14.512Z," 4664"
2017-08-21T06:10:10.329Z," 4864"
2017-08-21T06:15:06.130Z," 5068"
2017-08-21T06:20:01.790Z," 5348"
2017-08-21T06:24:58.085Z," 5564"
2017-08-21T06:29:54.929Z," 5840"
2017-08-21T06:34:52.027Z," 6000"
2017-08-21T06:39:48.755Z," 6244"
2017-08-21T06:44:45.603Z," 6472"
2017-08-21T06:49:41.532Z," 6640"
2017-08-21T06:54:37.298Z," 6940"
2017-08-21T06:59:33.292Z," 7200"
2017-08-21T07:04:29.236Z," 7476"
2017-08-21T07:09:25.140Z," 8076"
2017-08-21T07:14:21.192Z," 8096"
2017-08-21T07:19:19.093Z," 8596"
2017-08-21T07:24:15.301Z," 9028"
2017-08-21T07:29:11.251Z," 9836"
2017-08-21T07:34:07.219Z,17632
2017-08-21T07:39:04.249Z,20544
2017-08-21T07:44:00.887Z,14232
2017-08-21T07:48:57.076Z,12356
2017-08-21T07:53:54.247Z,10880
2017-08-21T07:58:51.269Z,11732
2017-08-21T08:03:46.763Z,12768
2017-08-21T08:08:44.074Z,30240
2017-08-21T08:13:42.244Z,32608
2017-08-21T08:18:39.032Z,32352
2017-08-21T08:23:36.661Z,35072
2017-08-21T08:28:32.959Z,36320
2017-08-21T08:33:30.455Z,41856
2017-08-21T08:38:26.265Z,12180
2017-08-21T08:43:21.265Z,12748
2017-08-21T08:48:17.570Z,11848
2017-08-21T08:53:12.442Z,12908
2017-08-21T08:58:08.331Z,13224
2017-08-21T09:03:04.217Z,11900
2017-08-21T09:08:01.212Z," 8668"
2017-08-21T09:12:56.854Z,12696
2017-08-21T09:17:52.857Z,16608
2017-08-21T09:22:49.737Z,13052
2017-08-21T09:27:45.497Z,14660
2017-08-21T09:32:41.373Z,10856
2017-08-21T09:37:37.392Z,14420
2017-08-21T09:42:33.505Z,13588
2017-08-21T09:47:30.355Z,14408
2017-08-21T09:52:28.014Z,14068
2017-08-21T09:57:24.738Z,20000
2017-08-21T10:02:21.446Z,43232
2017-08-21T10:07:18.837Z,13828
2017-08-21T10:12:15.203Z,69728
2017-08-21T10:17:13.143Z,67648
2017-08-21T10:22:10.052Z,68160
2017-08-21T10:27:07.503Z,69952
2017-08-21T10:32:06.009Z,71680
2017-08-21T10:37:02.562Z,68544
2017-08-21T10:41:58.979Z,63712
2017-08-21T10:46:55.080Z,53888
2017-08-21T10:51:49.988Z,57696
2017-08-21T10:56:47.781Z,40736
2017-08-21T11:01:42.074Z,17088
2017-08-21T11:06:39.930Z,51712
2017-08-21T11:11:36.617Z,51904
2017-08-21T11:16:31.755Z,46336
2017-08-21T11:21:28.604Z,27072
2017-08-21T11:26:25.911Z,58208
2017-08-21T11:31:24.363Z,43200
2017-08-21T11:36:19.776Z,14364
2017-08-21T11:41:14.573Z,11256
2017-08-21T11:46:10.493Z,55456
2017-08-21T11:51:05.692Z,10448
2017-08-21T11:56:02.115Z," 7948"
2017-08-21T12:00:57.006Z,48704
2017-08-21T12:05:56.849Z,46496
2017-08-21T12:10:52.243Z,26176
2017-08-21T12:15:48.688Z,15260
2017-08-21T12:20:44.160Z,36544
2017-08-21T12:25:40.726Z,10024
2017-08-21T12:30:35.612Z," 9656"
2017-08-21T12:35:30.883Z," 5180"
2017-08-21T12:40:26.200Z," 5940"
2017-08-21T12:45:21.839Z,12944
2017-08-21T12:50:18.909Z,48672
2017-08-21T12:55:15.801Z,47968
2017-08-21T13:00:12.830Z,14640
2017-08-21T13:05:08.257Z,12796
2017-08-21T13:10:03.937Z,12088
2017-08-21T13:15:00.254Z,13760
2017-08-21T13:19:56.250Z,12944
2017-08-21T13:24:52.268Z," 9828"
2017-08-21T13:29:48.024Z,11108
2017-08-21T13:34:43.906Z,11568
2017-08-21T13:39:39.944Z,11096
2017-08-21T13:44:35.837Z,12096
2017-08-21T13:49:31.861Z,11532
2017-08-21T13:54:28.378Z,11336
2017-08-21T13:59:24.379Z,11216
2017-08-21T14:04:20.413Z,11036
2017-08-21T14:09:16.674Z,11124
2017-08-21T14:14:12.370Z," 9364"
2017-08-21T14:19:09.513Z," 7484"
2017-08-21T14:24:05.958Z," 8840"
2017-08-21T14:29:01.482Z," 8900"
2017-08-21T14:33:58.764Z," 9140"
2017-08-21T14:38:54.736Z," 8784"
2017-08-21T14:43:50.786Z," 8828"
2017-08-21T14:48:47.146Z," 7344"
2017-08-21T14:53:42.942Z," 5324"
2017-08-21T14:58:38.847Z," 4688"
2017-08-21T15:03:34.305Z," 4816"
2017-08-21T15:08:29.939Z," 4188"
2017-08-21T15:13:25.667Z," 4624"
2017-08-21T15:18:21.503Z," 5052"
2017-08-21T15:23:18.838Z," 5784"
2017-08-21T15:28:15.719Z," 6204"
2017-08-21T15:33:11.359Z," 6148"
2017-08-21T15:38:07.164Z," 5152"
2017-08-21T15:43:02.894Z," 5480"
2017-08-21T15:48:00.179Z," 5388"
2017-08-21T15:52:55.901Z," 4468"
2017-08-21T15:57:51.729Z," 4152"
2017-08-21T16:02:47.539Z," 4012"
2017-08-21T16:07:43.359Z," 3876"
2017-08-21T16:12:39.164Z," 3780"
2017-08-21T16:17:35.574Z," 3608"
2017-08-21T16:22:32.402Z," 3468"
2017-08-21T16:27:28.972Z," 3552"
2017-08-21T16:32:24.744Z," 3356"
2017-08-21T16:37:21.672Z," 3280"
2017-08-21T16:42:17.240Z," 3216"
2017-08-21T16:47:13.711Z," 3068"
2017-08-21T16:52:09.633Z," 2780"
2017-08-21T16:57:06.114Z," 2612"
2017-08-21T17:02:02.948Z," 2392"
2017-08-21T17:06:58.263Z," 2128"
2017-08-21T17:11:55.045Z," 1960"
2017-08-21T17:16:50.447Z," 1848"
2017-08-21T17:21:47.258Z," 1792"
2017-08-21T17:26:42.808Z," 1660"
2017-08-21T17:31:39.078Z," 1592"
2017-08-21T17:36:34.883Z," 1476"
2017-08-21T17:41:30.891Z," 1332"
2017-08-21T17:46:28.186Z," 1140"
2017-08-21T17:51:23.422Z," 1056"
2017-08-21T17:56:20.858Z,"  936"
2017-08-21T18:01:16.561Z,"  744"
2017-08-21T18:06:12.258Z,"  596"
2017-08-21T18:11:08.404Z,"  484"
2017-08-21T18:16:05.370Z,"  376"
2017-08-21T18:21:00.786Z,"  288"
2017-08-21T18:25:56.566Z,"  208"
2017-08-21T18:30:53.596Z,"  136"
2017-08-21T18:35:50.858Z,"   88"
2017-08-21T18:40:47.157Z,"   64"
2017-08-21T18:45:43.013Z,"   40"
2017-08-21T18:50:39.858Z,"   28"
2017-08-21T18:55:35.320Z,"   12"
2017-08-21T19:00:31.198Z,"    4"
2017-08-21T19:05:28.194Z,"    4"
2017-08-21T19:10:23.820Z,"    0"
2017-08-21T19:15:19.823Z,"    0"
2017-08-21T19:20:15.381Z,"    0"
2017-08-21T19:25:11.684Z,"    0"
2017-08-21T19:30:08.295Z,"    0"
2017-08-21T19:35:03.738Z,"    0"
2017-08-21T19:40:00.797Z,"    0"
2017-08-21T19:44:56.478Z,"    0"
2017-08-21T19:49:54.561Z,"    0"
2017-08-21T19:54:50.873Z,"    0"
2017-08-21T19:59:46.790Z,"    0"
2017-08-21T20:04:42.742Z,"    0"
2017-08-21T20:09:38.399Z,"    0"
2017-08-21T20:14:35.559Z,"    0"
2017-08-21T20:19:30.954Z,"    0"
2017-08-21T20:24:26.742Z,"    0"
2017-08-21T20:29:22.611Z,"    0"
2017-08-21T20:34:18.692Z,"    0"
2017-08-21T20:39:15.465Z,"    0"
2017-08-21T20:44:11.153Z,"    0"
2017-08-21T20:49:06.962Z,"    0"
2017-08-21T20:54:02.687Z,"    0"
2017-08-21T20:58:59.899Z,"    0"
2017-08-21T21:03:55.541Z,"    0"
2017-08-21T21:08:52.473Z,"    0"
2017-08-21T21:13:48.930Z,"    0"
2017-08-21T21:18:45.659Z,"    0"
2017-08-21T21:23:41.109Z,"    0"
2017-08-21T21:28:38.269Z,"    0"
2017-08-21T21:33:33.771Z,"    0"
2017-08-21T21:38:29.638Z,"    0"
2017-08-21T21:43:25.547Z,"    0"
2017-08-21T21:48:22.387Z,"    0"
2017-08-21T21:53:18.944Z,"    0"
2017-08-21T21:58:14.446Z,"    0"
2017-08-21T22:03:10.220Z,"    0"
2017-08-21T22:08:06.515Z,"    0"
2017-08-21T22:13:02.329Z,"    0"
2017-08-21T22:17:58.049Z,"    0"
2017-08-21T22:22:54.175Z,"    0"
2017-08-21T22:27:50.098Z,"    0"
2017-08-21T22:32:45.799Z,"    0"
2017-08-21T22:37:42.163Z,"    0"
2017-08-21T22:42:37.993Z,"    0"
2017-08-21T22:47:33.663Z,"    0"
2017-08-21T22:52:30.151Z,"    0"
2017-08-21T22:57:26.801Z,"    0"
2017-08-21T23:02:23.693Z,"    0"
2017-08-21T23:07:19.259Z,"    0"
2017-08-21T23:12:15.522Z,"    0"
2017-08-21T23:17:12.107Z,"    0"
2017-08-21T23:22:08.278Z,"    0"
2017-08-21T23:27:04.073Z,"    0"
2017-08-21T23:31:59.906Z,"    0"
2017-08-21T23:36:55.484Z,"    0"
2017-08-21T23:41:51.870Z,"    0"
2017-08-21T23:46:48.093Z,"    0"
2017-08-21T23:51:43.780Z,"    0"
2017-08-21T23:56:41.689Z,"    0"
